Time;durP1;ratioP1;P1;durP2;ratioP2;P2;SDS_P1;SDS_P2;PMS_P1;PMS_P2;Temp;Humidity;BMP_temperature;BMP_pressure;BME280_temperature;BME280_humidity;BME280_pressure;Samples;Min_cycle;Max_cycle;Signal;HPM_P1;HPM_P2
2023/06/08 00:01:58;;;;;;;13.15;8.07;;;11.70;99.90;;;10.53;86.00;101478.78;5008975;28;19914;-72
2023/06/08 00:04:30;;;;;;;15.88;8.77;;;11.70;99.90;;;10.51;86.81;101480.59;5009988;28;20045;-72
2023/06/08 00:06:57;;;;;;;18.42;9.88;;;11.60;99.90;;;10.49;87.28;101480.63;5006741;28;20041;-72
2023/06/08 00:09:23;;;;;;;18.83;9.10;;;11.60;99.90;;;10.44;88.43;101480.78;5008287;28;20038;-72
2023/06/08 00:11:49;;;;;;;19.50;9.82;;;11.60;99.90;;;10.40;88.57;101479.19;5006048;28;20033;-72
2023/06/08 00:14:17;;;;;;;18.90;9.00;;;11.60;99.90;;;10.37;88.72;101478.44;5008737;28;20056;-71
2023/06/08 00:16:43;;;;;;;20.55;8.82;;;11.50;99.90;;;10.33;89.42;101482.09;5011344;28;20040;-72
2023/06/08 00:19:10;;;;;;;15.93;7.43;;;11.50;99.90;;;10.32;89.53;101478.56;5010955;28;20034;-72
2023/06/08 00:21:37;;;;;;;13.23;8.15;;;11.50;99.90;;;10.34;88.78;101481.16;5005951;28;20033;-72
2023/06/08 00:24:03;;;;;;;17.67;10.77;;;11.50;99.90;;;10.35;89.14;101483.75;5009272;28;20073;-72
2023/06/08 00:26:28;;;;;;;16.65;9.32;;;11.50;99.90;;;10.32;89.08;101475.94;5012042;28;20034;-72
2023/06/08 00:28:54;;;;;;;17.17;8.77;;;11.40;99.90;;;10.29;89.15;101483.94;5007896;28;20726;-72
2023/06/08 00:31:20;;;;;;;;;;;11.50;99.90;;;10.22;88.96;101483.25;5010544;28;20556;-72
2023/06/08 00:33:46;;;;;;;14.75;8.32;;;11.40;99.90;;;10.16;88.46;101479.97;5012792;28;19917;-72
2023/06/08 00:36:15;;;;;;;19.40;7.97;;;11.30;99.90;;;10.11;87.94;101477.50;5011802;28;20060;-72
2023/06/08 00:38:41;;;;;;;12.45;8.55;;;11.20;99.90;;;10.03;87.81;101476.88;4994521;28;20034;-72
2023/06/08 00:41:07;;;;;;;32.05;15.43;;;11.20;99.90;;;10.00;88.40;101483.09;5015331;28;20038;-72
2023/06/08 00:43:32;;;;;;;19.27;9.50;;;11.20;99.90;;;10.02;89.66;101481.28;5009975;28;20056;-72
2023/06/08 00:45:58;;;;;;;;;;;11.10;99.90;;;9.99;90.74;101473.47;5013122;28;20375;-72
2023/06/08 00:48:25;;;;;;;15.38;7.57;;;11.20;99.90;;;9.99;90.57;101475.25;5020931;28;20268;-74
2023/06/08 00:50:53;;;;;;;25.33;13.40;;;11.10;99.90;;;10.01;90.73;101473.44;4995575;28;20041;-71
2023/06/08 00:53:19;;;;;;;22.25;12.07;;;11.20;99.90;;;10.04;92.11;101482.09;5031076;28;20037;-72
2023/06/08 00:55:47;;;;;;;22.63;13.75;;;11.20;99.90;;;10.04;92.63;101479.47;5016910;28;20037;-71
2023/06/08 00:58:16;;;;;;;23.73;12.45;;;11.20;99.90;;;10.07;93.78;101482.00;4993512;28;20572;-71
2023/06/08 01:00:46;;;;;;;26.05;12.10;;;11.20;99.90;;;10.07;94.93;101486.41;5004957;28;20030;-71
2023/06/08 01:03:15;;;;;;;17.83;10.70;;;11.20;99.90;;;10.05;95.75;101478.53;5012565;28;20033;-71
2023/06/08 01:05:44;;;;;;;27.10;15.00;;;11.20;99.90;;;10.09;96.01;101474.06;5009898;28;20029;-71
2023/06/08 01:08:55;;;;;;;24.08;14.38;;;11.20;99.90;;;10.13;97.01;101473.03;5010840;28;20080;-71
2023/06/08 01:11:55;;;;;;;26.45;15.43;;;11.30;99.90;;;10.17;97.74;101476.41;4988614;28;20053;-71
2023/06/08 01:15:01;;;;;;;23.70;12.05;;;11.30;99.90;;;10.12;97.76;101492.34;5004167;28;20070;-71
2023/06/08 01:17:41;;;;;;;22.65;11.88;;;11.30;99.90;;;10.04;96.56;101479.47;5012192;28;20052;-71
2023/06/08 01:20:36;;;;;;;20.85;13.77;;;11.20;99.90;;;10.00;95.92;101483.09;5029767;28;20033;-71
2023/06/08 01:23:37;;;;;;;22.40;11.68;;;11.10;99.90;;;9.95;95.32;101485.00;5013443;28;20533;-72
2023/06/08 01:26:04;;;;;;;19.35;11.35;;;10.70;99.90;;;9.87;94.40;101487.03;5010113;28;20061;-71
2023/06/08 01:28:30;;;;;;;19.92;11.95;;;11.00;99.90;;;9.80;94.08;101482.84;5012167;28;20017;-71
2023/06/08 01:30:58;;;;;;;19.90;13.00;;;11.00;99.90;;;9.78;93.83;101476.78;5009655;28;20128;-71
2023/06/08 01:33:28;;;;;;;18.83;11.02;;;10.90;99.90;;;9.69;94.04;101469.19;5011789;28;20521;-71
2023/06/08 01:36:25;;;;;;;14.77;8.65;;;10.90;99.90;;;9.62;93.23;101468.53;4994617;28;20088;-71
2023/06/08 01:39:27;;;;;;;19.10;9.65;;;10.80;99.90;;;9.57;93.06;101468.66;5027334;28;20026;-71
2023/06/08 01:41:58;;;;;;;18.98;10.65;;;10.70;99.90;;;9.51;93.00;101465.38;4996515;28;20042;-71
2023/06/08 01:44:27;;;;;;;20.20;10.80;;;10.70;99.90;;;9.46;93.02;101468.13;4993578;28;20046;-71
2023/06/08 01:46:59;;;;;;;21.80;12.82;;;10.70;99.90;;;9.44;93.44;101470.81;5009471;28;20045;-71
2023/06/08 01:49:28;;;;;;;18.58;13.10;;;10.60;99.90;;;9.42;94.21;101461.25;5012000;28;20034;-72
2023/06/08 01:51:54;;;;;;;21.88;13.05;;;10.60;99.90;;;9.42;94.59;101463.88;5011635;28;20060;-71
2023/06/08 01:54:22;;;;;;;20.48;11.73;;;10.60;99.90;;;9.40;95.61;101461.28;4993774;28;20037;-71
2023/06/08 01:56:48;;;;;;;20.85;12.30;;;10.60;99.90;;;9.39;96.12;101469.22;5015977;28;20018;-71
2023/06/08 01:59:14;;;;;;;27.58;14.20;;;10.60;99.90;;;9.38;96.30;101462.25;4993335;28;20048;-71
2023/06/08 02:01:40;;;;;;;28.15;15.98;;;10.60;99.90;;;9.41;96.86;101467.41;4996723;28;20030;-71
2023/06/08 02:04:05;;;;;;;32.25;14.82;;;10.60;99.90;;;9.43;98.31;101465.59;4997434;28;20405;-71
2023/06/08 02:06:31;;;;;;;23.10;12.73;;;10.60;99.90;;;9.45;99.13;101469.88;5007872;28;20038;-71
2023/06/08 02:08:57;;;;;;;27.02;13.10;;;10.60;99.90;;;9.41;98.65;101464.75;5012335;28;20033;-71
2023/06/08 02:11:23;;;;;;;31.35;14.85;;;10.60;99.90;;;9.40;98.46;101461.28;5010883;28;20033;-71
2023/06/08 02:13:49;;;;;;;34.72;16.00;;;10.60;99.90;;;9.41;99.04;101465.63;5011097;28;20037;-71
2023/06/08 02:16:18;;;;;;;29.15;13.60;;;10.60;99.90;;;9.38;99.50;101467.50;5012787;28;20506;-70
2023/06/08 02:18:45;;;;;;;23.95;13.50;;;10.50;99.90;;;9.39;99.57;101480.56;5010095;28;20117;-71
2023/06/08 02:21:12;;;;;;;26.23;15.20;;;10.50;99.90;;;9.40;99.75;101473.56;5008876;28;20502;-71
2023/06/08 02:23:39;;;;;;;31.17;15.73;;;10.60;99.90;;;9.41;99.55;101472.66;5011130;28;20037;-71
2023/06/08 02:26:07;;;;;;;30.33;14.90;;;10.60;99.90;;;9.38;99.75;101470.13;4991884;28;20054;-71
2023/06/08 02:28:34;;;;;;;23.52;12.40;;;10.50;99.90;;;9.35;99.87;101472.84;5010388;28;20029;-71
2023/06/08 02:31:00;;;;;;;25.25;13.85;;;10.50;99.90;;;9.31;99.53;101479.97;5008423;28;20034;-70
2023/06/08 02:33:27;;;;;;;24.17;14.00;;;10.50;99.90;;;9.29;99.59;101479.16;5014215;28;20042;-70
2023/06/08 02:35:53;;;;;;;37.95;17.77;;;10.40;99.90;;;9.29;99.02;101478.25;4994478;28;20069;-71
2023/06/08 02:38:20;;;;;;;27.10;15.50;;;10.40;99.90;;;9.28;99.56;101477.41;5011340;28;20032;-71
2023/06/08 02:40:46;;;;;;;27.40;15.82;;;10.40;99.90;;;9.29;99.54;101483.53;5008508;28;20469;-70
2023/06/08 02:43:12;;;;;;;35.58;15.32;;;10.40;99.90;;;9.32;99.88;101480.81;5007594;28;20042;-71
2023/06/08 02:45:39;;;;;;;28.25;15.52;;;10.40;99.90;;;9.35;100.00;101472.84;5009521;28;20296;-71
2023/06/08 02:48:05;;;;;;;27.83;15.20;;;10.50;99.90;;;9.40;100.00;101476.19;5011671;28;20048;-71
2023/06/08 02:50:31;;;;;;;22.38;12.57;;;10.50;99.90;;;9.43;100.00;101473.47;4994033;28;20046;-70
2023/06/08 02:52:57;;;;;;;22.92;10.90;;;10.50;99.90;;;9.47;100.00;101475.09;4992073;28;20048;-70
2023/06/08 02:55:22;;;;;;;28.77;14.38;;;11.10;99.90;;;9.52;100.00;101474.97;5009366;28;20053;-71
2023/06/08 02:57:49;;;;;;;24.80;15.10;;;10.60;99.90;;;9.55;100.00;101470.47;5009090;28;20034;-71
2023/06/08 03:00:15;;;;;;;25.23;14.93;;;10.70;99.90;;;9.61;100.00;101475.56;5010451;28;20041;-73
2023/06/08 03:02:41;;;;;;;16.75;9.95;;;10.70;99.90;;;9.67;100.00;101481.53;5008840;28;20080;-71
2023/06/08 03:05:08;;;;;;;20.80;11.32;;;10.80;99.90;;;9.73;100.00;101478.72;5007834;28;20049;-71
2023/06/08 03:07:36;;;;;;;27.38;15.40;;;10.80;99.90;;;9.80;100.00;101475.81;5006792;28;20403;-70
2023/06/08 03:10:03;;;;;;;22.38;13.80;;;10.90;99.90;;;9.89;100.00;101472.03;5007941;28;20457;-71
2023/06/08 03:12:30;;;;;;;19.30;10.82;;;10.90;99.90;;;9.96;100.00;101465.69;5009888;28;20067;-70
2023/06/08 03:14:55;;;;;;;20.35;11.32;;;11.00;99.90;;;10.05;100.00;101475.06;5010152;28;20457;-70
2023/06/08 03:17:24;;;;;;;26.70;13.85;;;11.10;99.90;;;10.10;99.57;101462.59;5012346;28;20087;-71
2023/06/08 03:19:53;;;;;;;15.43;10.45;;;11.10;99.90;;;10.17;99.18;101476.41;5009640;28;20079;-71
2023/06/08 03:22:24;;;;;;;21.23;10.90;;;11.20;99.90;;;10.21;98.52;101468.38;4991847;28;20038;-70
2023/06/08 03:24:50;;;;;;;24.25;13.18;;;11.20;99.90;;;10.28;97.99;101471.69;5012500;28;20073;-70
2023/06/08 03:27:16;;;;;;;21.60;12.63;;;11.30;99.90;;;10.34;97.11;101468.00;4992999;28;20069;-70
2023/06/08 03:29:42;;;;;;;19.05;12.50;;;11.30;99.90;;;10.38;97.07;101469.63;5017999;28;20379;-70
2023/06/08 03:32:08;;;;;;;25.00;13.90;;;11.30;99.90;;;10.45;96.49;101465.84;5005993;28;20029;-70
2023/06/08 03:34:37;;;;;;;20.45;13.13;;;11.40;99.90;;;10.56;96.65;101465.47;5008535;28;20041;-70
2023/06/08 03:37:03;;;;;;;27.73;13.57;;;11.60;99.90;;;10.73;96.89;101468.38;5008861;28;20056;-70
2023/06/08 03:39:29;;;;;;;22.48;12.38;;;12.10;99.90;;;11.34;96.52;101472.31;4998320;28;20116;-70
2023/06/08 03:41:55;;;;;;;17.27;9.90;;;13.60;99.90;;;12.81;93.87;101479.56;5007166;28;20034;-71
2023/06/08 03:44:20;;;;;;;16.52;9.60;;;15.00;99.90;;;14.31;89.18;101482.22;4999787;28;21021;-71
2023/06/08 03:46:46;;;;;;;;;;;15.10;99.90;;;15.92;83.83;101490.53;5017188;28;20128;-70
2023/06/08 03:49:13;;;;;;;14.70;8.85;;;17.70;99.90;;;17.29;76.03;101491.22;5007137;28;19921;-70
2023/06/08 03:51:39;;;;;;;13.18;8.50;;;18.80;99.90;;;18.51;69.68;101486.88;5032124;28;20387;-71
2023/06/08 03:54:05;;;;;;;15.93;7.90;;;19.90;99.90;;;19.60;65.04;101492.59;5007739;28;20061;-70
2023/06/08 03:56:31;;;;;;;13.50;7.32;;;20.90;99.90;;;20.54;61.28;101491.00;5032970;28;20046;-71
2023/06/08 03:58:57;;;;;;;13.55;7.63;;;21.70;99.90;;;21.37;58.67;101497.91;5030667;28;20057;-70
2023/06/08 04:01:22;;;;;;;;;;;21.70;99.90;;;22.39;57.56;101506.59;5009823;28;20029;-71
2023/06/08 04:03:50;;;;;;;13.13;6.85;;;23.20;99.90;;;23.11;54.53;101511.19;5008954;28;20385;-71
2023/06/08 04:06:16;;;;;;;12.02;6.32;;;23.90;99.30;;;23.73;52.65;101509.25;5029933;28;20605;-71
2023/06/08 04:08:44;;;;;;;9.05;6.40;;;24.50;98.30;;;24.33;50.63;101519.13;5033684;28;20053;-70
2023/06/08 04:11:11;;;;;;;10.38;6.68;;;25.00;97.00;;;24.95;49.21;101525.00;4987629;28;20435;-71
2023/06/08 04:13:39;;;;;;;12.10;6.45;;;25.50;95.80;;;25.55;48.03;101539.00;5012951;28;20124;-70
2023/06/08 04:16:09;;;;;;;9.75;6.53;;;26.00;94.70;;;26.13;46.70;101545.03;5011049;28;20592;-71
2023/06/08 04:18:37;;;;;;;9.77;5.55;;;26.50;94.00;;;26.62;45.55;101552.78;5035662;28;20117;-71
2023/06/08 04:21:05;;;;;;;9.85;5.72;;;26.80;93.40;;;27.16;44.71;101557.00;5036509;28;20040;-71
2023/06/08 04:23:35;;;;;;;10.63;5.85;;;27.30;93.00;;;27.67;43.51;101573.38;5012813;28;20087;-71
2023/06/08 04:26:09;;;;;;;15.75;6.00;;;27.60;92.00;;;28.18;42.33;101573.34;5015328;28;20045;-70
2023/06/08 04:28:35;;;;;;;7.28;5.90;;;28.00;90.40;;;28.47;41.10;101582.84;5011470;28;20110;-71
2023/06/08 04:31:01;;;;;;;9.68;6.82;;;28.40;91.60;;;29.10;40.76;101582.22;5012985;28;20062;-71
2023/06/08 04:33:27;;;;;;;;;;;28.30;91.10;;;29.78;38.78;101590.81;5010898;28;20430;-71
2023/06/08 04:35:54;;;;;;;12.53;6.80;;;29.30;90.70;;;30.44;39.39;101594.84;4996513;28;20054;-71
2023/06/08 04:38:21;;;;;;;9.52;6.40;;;29.70;88.40;;;30.96;37.84;101597.84;5011802;28;20037;-71
2023/06/08 04:40:55;;;;;;;11.88;6.57;;;30.10;88.60;;;31.31;37.59;101607.16;5011483;28;20037;-71
2023/06/08 04:43:22;;;;;;;13.02;6.63;;;30.60;88.00;;;31.94;36.37;101610.31;5033159;28;20050;-71
2023/06/08 04:46:00;;;;;;;13.23;6.55;;;31.10;86.70;;;32.64;35.75;101607.97;5011643;28;20758;-71
2023/06/08 04:48:28;;;;;;;14.80;6.28;;;31.60;85.00;;;33.23;34.77;101626.69;5028048;28;20044;-71
2023/06/08 04:50:59;;;;;;;11.63;5.53;;;32.00;84.10;;;33.82;34.20;101629.97;5012697;28;20091;-71
2023/06/08 04:53:26;;;;;;;12.25;5.70;;;32.50;83.20;;;34.35;33.34;101635.63;5033962;28;20494;-71
2023/06/08 04:55:57;;;;;;;13.45;6.20;;;32.80;81.20;;;34.72;33.09;101634.22;5010586;28;20041;-71
2023/06/08 04:58:26;;;;;;;11.90;6.38;;;32.90;79.60;;;34.57;32.84;101638.19;5034902;28;20042;-71
2023/06/08 05:00:53;;;;;;;11.80;5.50;;;33.20;81.20;;;35.23;32.24;101649.19;5019119;28;20101;-71
2023/06/08 05:03:23;;;;;;;14.82;6.35;;;33.30;78.60;;;35.25;31.96;101647.09;5011849;28;20041;-71
2023/06/08 05:05:50;;;;;;;12.27;6.00;;;33.10;76.60;;;34.25;33.05;101646.97;5010133;28;20537;-71
2023/06/08 05:08:16;;;;;;;14.88;6.05;;;33.00;77.50;;;34.51;32.40;101648.94;5008961;28;20045;-71
2023/06/08 05:10:42;;;;;;;18.75;5.60;;;33.20;78.30;;;35.19;31.81;101664.34;4996016;28;20116;-71
2023/06/08 05:13:07;;;;;;;13.82;5.40;;;33.40;77.70;;;35.70;31.77;101674.59;5011880;28;20513;-71
2023/06/08 05:15:33;;;;;;;12.85;5.40;;;33.80;77.60;;;36.25;30.84;101676.91;5011462;28;20029;-71
2023/06/08 05:17:59;;;;;;;11.98;5.70;;;33.90;76.10;;;35.82;31.38;101676.66;5033002;28;20099;-71
2023/06/08 05:20:26;;;;;;;12.43;5.43;;;33.80;76.10;;;35.77;30.76;101676.44;5009946;28;20048;-71
2023/06/08 05:22:53;;;;;;;14.00;5.95;;;34.00;74.80;;;36.22;30.28;101680.09;5010662;28;20038;-71
2023/06/08 05:25:19;;;;;;;17.95;6.20;;;34.20;74.10;;;36.62;29.62;101677.13;5014786;28;20029;-71
2023/06/08 05:27:45;;;;;;;14.02;5.78;;;34.20;75.20;;;36.75;29.61;101678.94;5025942;28;20037;-71
2023/06/08 05:30:12;;;;;;;15.85;6.03;;;34.50;74.30;;;37.24;29.38;101685.50;5011100;28;20148;-71
2023/06/08 05:32:37;;;;;;;10.20;5.32;;;34.40;73.30;;;36.41;30.25;101674.69;5023493;28;20053;-71
2023/06/08 05:35:04;;;;;;;16.50;5.93;;;34.10;73.70;;;35.60;31.27;101660.47;5013016;28;20033;-71
2023/06/08 05:37:30;;;;;;;13.82;5.47;;;34.20;74.20;;;36.07;30.06;101672.13;4994884;28;20184;-71
2023/06/08 05:39:56;;;;;;;13.98;6.15;;;34.30;74.20;;;36.62;30.22;101671.63;5009452;28;20538;-71
2023/06/08 05:42:22;;;;;;;14.57;5.68;;;34.20;74.70;;;36.04;30.49;101672.53;5033650;28;20060;-71
2023/06/08 05:44:49;;;;;;;15.15;6.03;;;34.40;74.50;;;36.63;30.39;101666.97;5012088;28;20042;-71
2023/06/08 05:47:16;;;;;;;15.02;6.03;;;33.80;72.10;;;34.37;31.85;101649.13;5028468;28;20030;-72
2023/06/08 05:49:41;;;;;;;15.63;5.63;;;34.00;74.90;;;35.81;30.74;101659.38;5032390;28;20048;-71
2023/06/08 05:52:07;;;;;;;21.90;5.82;;;34.30;74.60;;;36.40;30.74;101671.13;5010581;28;20034;-71
2023/06/08 05:54:33;;;;;;;13.80;5.40;;;34.70;74.00;;;36.79;29.76;101669.19;5012139;28;20525;-71
2023/06/08 05:57:00;;;;;;;18.35;6.13;;;35.10;73.00;;;37.15;28.70;101673.97;5009822;28;20087;-71
2023/06/08 05:59:26;;;;;;;16.23;5.45;;;35.00;73.20;;;36.63;29.65;101664.25;5012592;28;20038;-71
2023/06/08 06:01:53;;;;;;;20.00;6.25;;;35.30;70.90;;;37.07;29.27;101673.38;5010696;28;20042;-71
2023/06/08 06:04:19;;;;;;;14.30;5.90;;;35.50;70.00;;;36.97;29.08;101665.66;5009820;28;20037;-71
2023/06/08 06:06:45;;;;;;;12.48;5.55;;;35.70;69.80;;;37.39;28.42;101678.78;5029051;28;20709;-71
2023/06/08 06:09:11;;;;;;;18.52;6.22;;;36.10;70.00;;;37.99;27.86;101689.94;5011811;28;20052;-71
2023/06/08 06:11:38;;;;;;;15.77;6.00;;;36.00;70.40;;;37.18;28.95;101669.94;5017913;28;20367;-71
2023/06/08 06:14:03;;;;;;;17.58;5.97;;;36.30;68.80;;;37.74;27.62;101682.66;5010234;28;20498;-71
2023/06/08 06:16:29;;;;;;;18.15;6.30;;;36.70;67.40;;;38.28;26.86;101680.09;4998176;28;20049;-72
2023/06/08 06:18:56;;;;;;;16.23;5.65;;;36.60;67.90;;;37.75;28.38;101678.81;5002287;28;20033;-72
2023/06/08 06:21:22;;;;;;;14.40;6.10;;;36.90;68.30;;;38.36;27.60;101684.41;5034590;28;20044;-71
2023/06/08 06:23:48;;;;;;;14.35;5.22;;;37.30;68.60;;;38.98;26.90;101686.88;4994052;28;20522;-71
2023/06/08 06:26:13;;;;;;;15.15;5.32;;;37.90;66.00;;;39.54;26.37;101684.59;5009537;28;20041;-71
2023/06/08 06:28:40;;;;;;;14.82;5.38;;;38.30;66.40;;;39.87;26.05;101694.16;5011504;28;20029;-71
2023/06/08 06:31:06;;;;;;;16.60;5.45;;;37.90;65.80;;;38.47;27.13;101671.75;5018005;28;20039;-71
2023/06/08 06:33:33;;;;;;;14.50;5.28;;;37.90;65.80;;;38.56;27.41;101662.97;5006433;28;20090;-71
2023/06/08 06:35:58;;;;;;;11.70;5.03;;;37.90;63.60;;;38.35;26.47;101664.31;4994387;28;20032;-71
2023/06/08 06:38:25;;;;;;;12.95;4.80;;;38.10;63.50;;;39.02;25.91;101674.31;5012536;28;20038;-71
2023/06/08 06:40:52;;;;;;;15.05;4.85;;;37.70;63.30;;;37.72;27.15;101654.56;5000127;28;20061;-71
2023/06/08 06:43:22;;;;;;;14.65;5.70;;;37.70;63.40;;;38.27;26.82;101653.63;5009725;28;20049;-71
2023/06/08 06:45:50;;;;;;;13.02;5.07;;;37.50;61.20;;;37.41;27.01;101655.56;5031872;28;20042;-71
2023/06/08 06:48:21;;;;;;;11.68;4.55;;;37.70;60.30;;;38.10;25.59;101664.47;5013159;28;20038;-71
2023/06/08 06:50:47;;;;;;;9.23;4.03;;;37.30;59.40;;;37.13;26.30;101653.31;5009596;28;20526;-71
2023/06/08 06:53:13;;;;;;;10.18;3.83;;;37.50;60.20;;;37.76;25.39;101650.28;5007973;28;20045;-71
2023/06/08 06:55:41;;;;;;;23.13;18.35;;;36.80;56.60;;;36.17;25.66;101641.50;5005484;28;23012;-71
2023/06/08 06:58:07;;;;;;;10.80;5.28;;;36.60;59.00;;;35.47;26.78;101633.97;5011461;28;20030;-71
2023/06/08 07:00:37;;;;;;;16.13;11.80;;;36.00;61.90;;;35.40;27.79;101624.06;5010535;28;20046;-71
2023/06/08 07:03:07;;;;;;;17.45;10.18;;;36.40;62.00;;;36.70;26.67;101638.44;5006033;28;20076;-72
2023/06/08 07:05:36;;;;;;;16.15;11.32;;;36.90;61.70;;;37.44;26.25;101635.84;5025044;28;20092;-71
2023/06/08 07:08:03;;;;;;;20.58;9.23;;;36.90;60.50;;;36.64;26.85;101633.03;5009714;28;20048;-72
2023/06/08 07:10:29;;;;;;;21.75;10.60;;;36.60;59.70;;;35.73;27.28;101627.59;5010726;28;20506;-71
2023/06/08 07:12:56;;;;;;;16.02;9.30;;;36.80;60.90;;;36.83;26.43;101631.19;5010192;28;20509;-71
2023/06/08 07:15:23;;;;;;;19.80;9.70;;;37.20;60.40;;;37.40;25.68;101640.13;5009588;28;20465;-71
2023/06/08 07:17:50;;;;;;;11.38;7.45;;;37.50;59.60;;;37.68;25.30;101645.09;5007854;28;20046;-71
2023/06/08 07:20:16;;;;;;;14.95;8.25;;;37.70;59.90;;;37.94;25.18;101637.59;5006361;28;20038;-70
2023/06/08 07:22:41;;;;;;;12.05;6.05;;;37.50;58.50;;;37.02;25.34;101630.16;5022979;28;20045;-71
2023/06/08 07:25:08;;;;;;;12.30;8.35;;;37.00;58.10;;;36.31;25.73;101634.06;4984234;28;20050;-72
2023/06/08 07:27:33;;;;;;;20.15;17.73;;;36.10;59.10;;;35.03;27.12;101616.31;5011027;28;20187;-71
2023/06/08 07:29:59;;;;;;;14.00;9.95;;;35.90;60.80;;;35.28;27.71;101616.53;5005629;28;20040;-71
2023/06/08 07:32:29;;;;;;;17.75;13.02;;;35.70;60.40;;;35.33;27.66;101608.50;5011454;28;20083;-71
2023/06/08 07:34:55;;;;;;;23.08;19.80;;;35.60;58.00;;;35.25;26.49;101614.22;4992228;28;20033;-71
2023/06/08 07:37:21;;;;;;;20.55;16.17;;;35.80;59.30;;;35.62;26.23;101621.91;4992217;28;20053;-71
2023/06/08 07:39:47;;;;;;;15.50;13.50;;;36.10;59.20;;;36.40;25.36;101627.25;4999863;28;20048;-71
2023/06/08 07:42:15;;;;;;;17.38;12.80;;;35.80;57.80;;;35.24;26.00;101612.53;5007721;28;20120;-71
2023/06/08 07:44:41;;;;;;;18.55;14.88;;;35.10;58.30;;;34.22;26.76;101605.56;5010444;28;20120;-71
2023/06/08 07:47:06;;;;;;;19.52;17.05;;;35.10;59.40;;;34.56;26.94;101598.22;5025718;28;20132;-71
2023/06/08 07:49:32;;;;;;;18.10;13.85;;;35.10;59.30;;;35.07;26.28;101614.00;5010912;28;20045;-71
2023/06/08 07:51:58;;;;;;;29.05;19.77;;;35.10;60.40;;;35.15;26.13;101618.47;5005404;28;20547;-71
2023/06/08 07:54:24;;;;;;;20.52;18.52;;;35.30;58.90;;;35.28;25.87;101611.06;5007063;28;20116;-71
2023/06/08 07:56:50;;;;;;;23.23;16.33;;;35.30;58.60;;;35.31;25.89;101618.84;5017495;28;20037;-71
2023/06/08 07:59:16;;;;;;;14.70;11.77;;;35.00;57.30;;;34.74;26.16;101611.31;4985823;28;20052;-72
2023/06/08 08:01:42;;;;;;;11.57;7.93;;;34.40;56.70;;;33.57;25.68;101605.91;5011933;28;20030;-72
2023/06/08 08:04:09;;;;;;;16.30;10.68;;;33.80;58.30;;;32.78;27.69;101589.81;5008821;28;20108;-72
2023/06/08 08:06:35;;;;;;;19.05;10.30;;;33.60;59.80;;;33.19;27.60;101587.19;5006661;28;20045;-71
2023/06/08 08:09:02;;;;;;;14.07;11.35;;;33.60;60.40;;;33.18;27.99;101581.97;5012427;28;20034;-71
2023/06/08 08:11:28;;;;;;;18.55;13.85;;;33.70;61.40;;;33.90;27.66;101588.81;4991316;28;20108;-71
2023/06/08 08:13:55;;;;;;;16.27;12.00;;;33.50;61.70;;;33.15;28.24;101572.28;5008313;28;20347;-75
2023/06/08 08:16:21;;;;;;;16.67;12.63;;;33.60;62.30;;;33.69;28.36;101571.53;5008329;28;20034;-71
2023/06/08 08:18:47;;;;;;;20.25;14.48;;;33.60;61.80;;;33.77;28.30;101572.41;5008905;28;20429;-71
2023/06/08 08:21:12;;;;;;;16.00;10.18;;;33.70;63.40;;;34.04;28.16;101576.91;5009847;28;20051;-71
2023/06/08 08:23:38;;;;;;;14.75;9.27;;;33.40;63.00;;;33.12;29.34;101564.50;4992730;28;20053;-71
2023/06/08 08:26:04;;;;;;;19.38;10.27;;;33.30;62.00;;;33.25;28.91;101561.00;5009298;28;20371;-71
2023/06/08 08:28:30;;;;;;;18.65;11.00;;;33.20;63.20;;;33.22;29.05;101559.53;5005734;28;20041;-70
2023/06/08 08:30:56;;;;;;;16.20;11.27;;;33.00;63.80;;;32.61;30.22;101549.19;5009429;28;20068;-71
2023/06/08 08:33:22;;;;;;;18.23;13.60;;;32.60;61.80;;;31.86;30.40;101531.47;4990769;28;20048;-71
2023/06/08 08:35:48;;;;;;;16.25;13.55;;;32.20;62.90;;;31.46;31.22;101528.25;5007717;28;20041;-71
2023/06/08 08:38:13;;;;;;;19.13;11.15;;;31.80;64.40;;;30.86;31.86;101528.28;5009371;28;20038;-71
2023/06/08 08:40:42;;;;;;;19.05;12.88;;;31.20;66.20;;;30.02;33.10;101505.66;5014139;28;20763;-71
2023/06/08 08:43:29;;;;;;;16.27;12.63;;;31.00;65.30;;;30.19;32.34;101507.22;5023668;28;20125;-71
2023/06/08 08:46:00;;;;;;;15.70;12.70;;;30.90;65.90;;;30.49;32.54;101514.66;5022639;28;20125;-71
2023/06/08 08:48:29;;;;;;;13.98;12.50;;;30.80;64.80;;;30.14;32.07;101506.94;5007895;28;20039;-71
2023/06/08 08:50:59;;;;;;;14.05;8.98;;;30.80;67.00;;;30.39;32.51;101506.75;5009298;28;20124;-71
2023/06/08 08:53:30;;;;;;;16.75;10.57;;;30.70;68.30;;;30.37;32.71;101506.97;5006903;28;20045;-70
2023/06/08 08:55:59;;;;;;;14.15;8.90;;;30.80;69.40;;;30.33;33.33;101502.91;5006628;28;20189;-72
2023/06/08 08:58:26;;;;;;;20.65;11.07;;;30.40;68.80;;;29.62;33.78;101497.56;5015018;28;20060;-71
2023/06/08 09:00:52;;;;;;;17.77;11.65;;;30.20;66.50;;;29.14;34.04;101488.66;5011837;28;20118;-72
2023/06/08 09:03:19;;;;;;;19.90;12.80;;;30.10;67.80;;;29.45;33.50;101490.53;5011088;28;20118;-71
2023/06/08 09:05:48;;;;;;;17.73;10.10;;;29.90;69.60;;;29.24;34.77;101480.28;4994057;28;20406;-71
2023/06/08 09:08:17;;;;;;;19.83;11.07;;;29.50;70.80;;;28.48;36.18;101468.97;5009568;28;20103;-71
2023/06/08 09:10:43;;;;;;;19.88;12.25;;;29.40;71.20;;;28.62;35.64;101467.44;5013592;28;20491;-71
2023/06/08 09:13:20;;;;;;;20.60;12.77;;;29.00;71.50;;;27.91;38.38;101453.53;5010393;28;20514;-71
2023/06/08 09:15:47;;;;;;;20.52;12.25;;;29.00;74.50;;;28.12;37.36;101458.47;5035345;28;20033;-71
2023/06/08 09:18:18;;;;;;;13.80;10.50;;;28.60;73.50;;;27.72;38.52;101449.25;5011545;28;20114;-71
2023/06/08 09:20:45;;;;;;;17.92;10.60;;;28.60;74.80;;;27.91;37.86;101468.94;5012222;28;20418;-71
2023/06/08 09:23:25;;;;;;;17.40;11.57;;;28.40;74.30;;;27.74;38.52;101457.22;5004378;28;20574;-70
2023/06/08 09:25:52;;;;;;;15.43;10.65;;;28.60;76.50;;;28.17;38.38;101457.97;5014152;28;20133;-72
2023/06/08 09:28:25;;;;;;;18.15;11.77;;;28.90;76.10;;;28.69;37.61;101468.41;5012967;28;20451;-71
2023/06/08 09:31:00;;;;;;;19.20;11.73;;;29.30;75.00;;;29.25;36.70;101476.56;5002810;28;20113;-71
2023/06/08 09:33:33;;;;;;;19.73;11.40;;;29.50;74.00;;;29.45;36.69;101485.13;4996277;28;20383;-71
2023/06/08 09:36:02;;;;;;;21.20;12.80;;;29.80;72.90;;;29.54;36.38;101483.22;5027807;28;20041;-71
2023/06/08 09:38:32;;;;;;;15.45;11.13;;;30.00;73.00;;;29.95;35.46;101486.53;5033193;28;20038;-71
2023/06/08 09:41:16;;;;;;;17.67;10.00;;;30.20;72.60;;;30.11;35.75;101492.88;5012068;28;20041;-71
2023/06/08 09:43:56;;;;;;;15.80;8.63;;;30.50;72.70;;;30.37;35.17;101487.94;5011433;28;20037;-71
2023/06/08 09:46:45;;;;;;;19.15;10.80;;;30.60;72.10;;;30.52;35.44;101493.41;5000693;28;20099;-71
2023/06/08 09:49:16;;;;;;;10.93;8.23;;;30.70;70.10;;;30.36;33.84;101498.97;5010821;28;20711;-72
2023/06/08 09:51:53;;;;;;;15.35;11.85;;;30.70;69.70;;;30.43;34.26;101495.38;5012483;28;20029;-71
2023/06/08 09:54:23;;;;;;;19.13;13.55;;;30.30;69.60;;;29.51;35.44;101492.56;5007162;28;20030;-71
2023/06/08 09:56:57;;;;;;;19.23;12.50;;;30.10;72.40;;;29.39;36.56;101473.09;4997428;28;20053;-71
2023/06/08 09:59:40;;;;;;;11.27;6.63;;;30.00;71.30;;;29.22;35.81;101471.50;4995820;28;20044;-72
2023/06/08 10:02:42;;;;;;;19.58;12.75;;;29.90;72.10;;;29.60;35.28;101475.19;5024950;28;20112;-70
2023/06/08 10:05:13;;;;;;;16.85;10.80;;;30.10;72.80;;;29.86;35.52;101471.34;5028440;28;20435;-71
2023/06/08 10:07:47;;;;;;;17.00;10.73;;;30.20;73.40;;;30.03;36.03;101475.63;5012641;28;20053;-70
2023/06/08 10:10:33;;;;;;;17.92;12.60;;;30.20;71.70;;;29.92;35.52;101470.63;5002772;28;20448;-71
2023/06/08 10:13:04;;;;;;;15.05;13.05;;;30.20;71.10;;;29.90;35.05;101472.66;5006701;28;20040;-71